Time;durP1;ratioP1;P1;durP2;ratioP2;P2;SDS_P1;SDS_P2;PMS_P1;PMS_P2;Temp;Humidity;BMP_temperature;BMP_pressure;BME280_temperature;BME280_humidity;BME280_pressure;Samples;Min_cycle;Max_cycle;Signal;HPM_P1;HPM_P2
2021/07/04 00:00:42;;;;;;;6.27;5.87;;;;;;;17.66;76.77;100239.69;5064754;28;20279;-72
2021/07/04 00:03:09;;;;;;;6.63;6.03;;;;;;;17.61;77.25;100223.22;5064399;28;20669;-72
2021/07/04 00:05:38;;;;;;;6.50;6.10;;;;;;;17.51;77.66;100208.78;5064604;28;20238;-72
2021/07/04 00:08:06;;;;;;;7.13;6.40;;;;;;;17.50;77.75;100201.78;5064520;28;20268;-72
2021/07/04 00:10:34;;;;;;;7.30;6.33;;;;;;;17.47;78.31;100181.69;5064186;28;20201;-72
2021/07/04 00:13:01;;;;;;;6.27;5.87;;;;;;;17.56;77.76;100198.88;5063695;28;20280;-72
2021/07/04 00:15:29;;;;;;;7.13;6.43;;;;;;;17.51;77.46;100218.50;5064684;28;20617;-72
2021/07/04 00:17:57;;;;;;;6.87;6.43;;;;;;;17.49;77.13;100234.41;5064245;28;20225;-72
2021/07/04 00:20:24;;;;;;;6.63;6.13;;;;;;;17.57;76.99;100244.59;5064633;28;20228;-71
2021/07/04 00:22:54;;;;;;;7.63;7.13;;;;;;;17.55;76.60;100259.66;5063833;28;20818;-72
2021/07/04 00:25:21;;;;;;;6.87;6.47;;;;;;;17.48;76.69;100261.72;5063848;28;20211;-72
2021/07/04 00:27:47;;;;;;;6.70;6.30;;;;;;;17.36;77.02;100243.88;5064042;28;20238;-72
2021/07/04 00:30:16;;;;;;;7.17;6.60;;;;;;;17.30;77.19;100238.91;5064001;28;20259;-72
2021/07/04 00:32:43;;;;;;;7.07;6.47;;;;;;;17.33;77.95;100218.50;5063459;28;20227;-72
2021/07/04 00:35:13;;;;;;;7.03;6.40;;;;;;;17.31;77.72;100215.09;5063964;28;20232;-72
2021/07/04 00:37:39;;;;;;;6.67;6.27;;;;;;;17.34;77.37;100237.81;5063863;28;20229;-71
2021/07/04 00:40:08;;;;;;;7.03;6.43;;;;;;;17.29;77.33;100232.78;5063980;28;20215;-72
2021/07/04 00:42:36;;;;;;;6.90;6.40;;;;;;;17.21;77.72;100222.59;5063840;28;20207;-73
2021/07/04 00:45:06;;;;;;;7.07;6.67;;;;;;;17.24;78.42;100200.50;5063558;28;20628;-72
2021/07/04 00:47:32;;;;;;;7.50;6.90;;;;;;;17.23;78.74;100173.25;5063972;28;20237;-72
2021/07/04 00:49:58;;;;;;;6.70;6.20;;;;;;;17.20;78.03;100196.31;5063736;28;20203;-72
2021/07/04 00:52:26;;;;;;;7.20;6.63;;;;;;;17.15;77.79;100222.06;5063382;28;21034;-72
2021/07/04 00:54:53;;;;;;;7.00;6.53;;;;;;;17.05;77.88;100219.88;5063591;28;20210;-72
2021/07/04 00:57:19;;;;;;;5.93;5.63;;;;;;;17.03;77.82;100216.47;5063529;28;20221;-73
2021/07/04 00:59:46;;;;;;;7.53;6.93;;;;;;;17.03;77.78;100221.75;5063371;28;20209;-72
2021/07/04 01:02:12;;;;;;;7.00;6.30;;;;;;;17.00;77.67;100221.03;5062813;28;20206;-72
2021/07/04 01:04:38;;;;;;;6.93;6.40;;;;;;;16.88;78.07;100219.84;5063193;28;20219;-72
2021/07/04 01:07:05;;;;;;;6.30;5.90;;;;;;;16.84;78.08;100210.38;5062877;28;20279;-72
2021/07/04 01:09:33;;;;;;;6.70;6.30;;;;;;;16.70;78.69;100184.66;5063429;28;20270;-73
2021/07/04 01:11:59;;;;;;;6.93;6.43;;;;;;;16.70;78.81;100170.63;5062992;28;20255;-73
2021/07/04 01:14:26;;;;;;;6.87;6.47;;;;;;;16.72;79.05;100174.91;5063511;28;20884;-73
2021/07/04 01:16:52;;;;;;;7.93;6.33;;;;;;;16.73;79.09;100173.09;5063390;28;20221;-73
2021/07/04 01:19:19;;;;;;;7.03;6.63;;;;;;;16.73;79.44;100159.94;5063538;28;20613;-73
2021/07/04 01:21:46;;;;;;;7.00;6.60;;;;;;;16.80;79.23;100167.47;5062802;28;20212;-73
2021/07/04 01:24:14;;;;;;;7.27;6.77;;;;;;;16.85;78.97;100178.69;5062956;28;20293;-73
2021/07/04 01:26:42;;;;;;;7.20;6.60;;;;;;;16.82;78.99;100177.97;5062435;28;20278;-72
2021/07/04 01:29:08;;;;;;;7.57;6.90;;;;;;;16.77;78.58;100193.09;5063128;28;20217;-73
2021/07/04 01:31:35;;;;;;;6.73;6.30;;;;;;;16.75;78.96;100182.66;5062710;28;20205;-73
2021/07/04 01:34:01;;;;;;;6.63;6.23;;;;;;;16.65;78.89;100184.91;5062677;28;20260;-73
2021/07/04 01:36:28;;;;;;;7.27;6.67;;;;;;;16.67;78.67;100190.94;5062608;28;20763;-73
2021/07/04 01:38:54;;;;;;;7.00;6.47;;;;;;;16.56;79.03;100185.31;5062711;28;20258;-73
2021/07/04 01:41:22;;;;;;;7.23;6.83;;;;;;;16.50;79.23;100172.44;5063046;28;20248;-73
2021/07/04 01:43:48;;;;;;;6.70;6.10;;;;;;;16.46;79.50;100168.25;5062531;28;20217;-73
2021/07/04 01:46:15;;;;;;;7.40;6.90;;;;;;;16.57;79.99;100142.25;5065076;28;20209;-73
2021/07/04 01:48:41;;;;;;;7.63;7.03;;;;;;;16.53;80.18;100132.78;5067080;28;20276;-73
2021/07/04 01:51:07;;;;;;;7.13;6.63;;;;;;;16.57;80.45;100126.44;5067354;28;20281;-74
2021/07/04 01:53:35;;;;;;;7.50;7.00;;;;;;;16.53;79.99;100142.44;5065703;28;20476;-72
2021/07/04 01:56:04;;;;;;;7.80;7.20;;;;;;;16.41;80.01;100136.88;5062491;28;20202;-73
2021/07/04 01:58:32;;;;;;;6.40;6.00;;;;;;;16.40;79.85;100147.47;5062749;28;20207;-73
2021/07/04 02:00:59;;;;;;;7.60;7.10;;;;;;;16.33;79.98;100146.03;5062639;28;20266;-73
2021/07/04 02:03:25;;;;;;;7.80;7.30;;;;;;;16.34;79.60;100159.16;5061890;28;20960;-73
2021/07/04 02:05:51;;;;;;;7.37;6.87;;;;;;;16.23;80.21;100138.59;5062437;28;20545;-73
2021/07/04 02:08:18;;;;;;;7.13;6.73;;;;;;;16.17;80.47;100127.47;5062587;28;20229;-73
2021/07/04 02:10:45;;;;;;;7.93;7.00;;;;;;;16.04;80.85;100107.00;5062417;28;20205;-73
2021/07/04 02:13:11;;;;;;;8.07;7.40;;;;;;;16.02;81.28;100097.47;5060503;28;20494;-73
2021/07/04 02:15:40;;;;;;;7.37;6.87;;;;;;;16.06;81.17;100093.78;5062436;28;20422;-74
2021/07/04 02:18:10;;;;;;;6.83;6.40;;;;;;;16.03;81.14;100092.13;5062258;28;20642;-73
2021/07/04 02:20:38;;;;;;;7.60;7.00;;;;;;;16.05;80.76;100115.75;5062174;28;20205;-73
2021/07/04 02:23:07;;;;;;;6.50;6.10;;;;;;;16.04;80.50;100125.44;5062148;28;20198;-73
2021/07/04 02:25:34;;;;;;;7.70;7.20;;;;;;;16.03;80.75;100136.03;5062173;28;20205;-73
2021/07/04 02:28:01;;;;;;;7.37;6.67;;;;;;;16.03;80.52;100133.38;5062180;28;20225;-72
2021/07/04 02:30:28;;;;;;;7.30;6.77;;;;;;;16.03;81.32;100110.53;5062098;28;20204;-73
2021/07/04 02:32:56;;;;;;;7.93;7.43;;;;;;;15.59;83.22;100059.94;5061819;28;20228;-73
2021/07/04 02:35:23;;;;;;;10.30;8.73;;;;;;;14.74;85.31;99986.59;5062303;28;20212;-73
2021/07/04 02:37:49;;;;;;;9.60;8.83;;;;;;;14.94;85.83;99968.19;5062292;28;20656;-72
2021/07/04 02:40:16;;;;;;;10.20;8.37;;;;;;;15.15;84.97;99994.44;5062101;28;20219;-73
2021/07/04 02:42:42;;;;;;;9.63;8.77;;;;;;;14.99;83.98;100039.81;5061449;28;20619;-73
2021/07/04 02:45:09;;;;;;;8.27;7.77;;;;;;;14.68;85.19;100009.59;5061695;28;20216;-73
2021/07/04 02:47:36;;;;;;;9.43;8.63;;;;;;;14.93;84.49;100016.44;5062270;28;20278;-73
2021/07/04 02:50:05;;;;;;;7.57;7.07;;;;;;;15.09;84.19;100043.75;5062410;28;20213;-73
2021/07/04 02:52:32;;;;;;;8.63;8.03;;;;;;;14.76;84.17;100048.66;5061818;28;20210;-73
2021/07/04 02:54:58;;;;;;;10.00;9.40;;;;;;;14.53;85.65;100012.84;5061750;28;20223;-73
2021/07/04 02:57:24;;;;;;;9.70;8.90;;;;;;;14.60;85.72;99997.72;5061867;28;20298;-73
2021/07/04 02:59:51;;;;;;;8.97;8.23;;;;;;;14.82;85.97;99989.75;5061798;28;20212;-73
2021/07/04 03:02:17;;;;;;;8.40;7.80;;;;;;;14.99;85.03;100015.31;5061289;28;20207;-73
2021/07/04 03:04:44;;;;;;;9.50;8.63;;;;;;;15.12;84.20;100042.75;5062020;28;20265;-73
2021/07/04 03:07:11;;;;;;;8.67;8.10;;;;;;;15.26;84.02;100060.53;5061876;28;20596;-73
2021/07/04 03:09:39;;;;;;;9.23;8.63;;;;;;;15.37;84.58;100037.25;5061723;28;20212;-73
2021/07/04 03:12:07;;;;;;;8.40;7.77;;;;;;;15.46;84.65;100041.22;5061401;28;20563;-73
2021/07/04 03:14:34;;;;;;;8.53;7.83;;;;;;;15.53;84.49;100050.56;5061647;28;20309;-73
2021/07/04 03:17:00;;;;;;;8.13;7.57;;;;;;;15.60;83.89;100062.50;5061747;28;20225;-73
2021/07/04 03:19:26;;;;;;;8.83;8.13;;;;;;;15.64;83.34;100090.38;5061663;28;20281;-72
2021/07/04 03:21:53;;;;;;;8.40;7.80;;;;;;;15.67;83.24;100108.66;5061608;28;20217;-72
2021/07/04 03:24:21;;;;;;;7.60;7.10;;;;;;;15.68;82.84;100134.06;5062631;28;20692;-73
2021/07/04 03:26:47;;;;;;;7.90;7.50;;;;;;;15.64;82.53;100129.00;5064637;28;20587;-73
2021/07/04 03:29:13;;;;;;;7.93;7.43;;;;;;;15.67;82.78;100136.75;5065393;28;20268;-73
2021/07/04 03:31:40;;;;;;;7.73;7.23;;;;;;;15.67;82.76;100126.22;5065432;28;20640;-72
2021/07/04 03:34:06;;;;;;;7.80;7.27;;;;;;;15.69;82.68;100129.63;5064652;28;20277;-72
2021/07/04 03:36:33;;;;;;;7.30;6.70;;;;;;;15.70;83.29;100118.22;5064859;28;20224;-73
2021/07/04 03:38:59;;;;;;;7.47;6.97;;;;;;;15.71;83.61;100095.38;5065216;28;20638;-72
2021/07/04 03:41:27;;;;;;;7.70;7.20;;;;;;;15.72;83.24;100102.31;5064914;28;20201;-72
2021/07/04 03:43:53;;;;;;;7.73;7.17;;;;;;;15.72;82.20;100126.88;5064739;28;20221;-72
2021/07/04 03:46:22;;;;;;;7.90;7.40;;;;;;;15.79;82.74;100133.59;5065311;28;20714;-73
2021/07/04 03:48:48;;;;;;;7.80;7.30;;;;;;;15.80;83.36;100118.69;5065097;28;20214;-72
2021/07/04 03:51:14;;;;;;;8.00;7.37;;;;;;;15.75;83.74;100092.56;5064829;28;20270;-72
2021/07/04 03:53:41;;;;;;;7.53;7.03;;;;;;;15.75;83.53;100104.88;5063994;28;20229;-73
2021/07/04 03:56:07;;;;;;;8.13;7.43;;;;;;;15.80;83.54;100097.63;5064649;28;20205;-72
2021/07/04 03:58:35;;;;;;;7.60;7.00;;;;;;;15.89;83.23;100111.19;5064713;28;20247;-72
2021/07/04 04:01:02;;;;;;;7.60;7.00;;;;;;;15.85;83.37;100114.88;5064925;28;20262;-72
2021/07/04 04:03:29;;;;;;;9.43;7.67;;;;;;;15.93;83.20;100125.06;5064430;28;20578;-73
2021/07/04 04:05:56;;;;;;;8.63;7.93;;;;;;;15.96;83.72;100101.25;5064568;28;20206;-72
2021/07/04 04:08:23;;;;;;;8.73;7.97;;;;;;;16.01;83.83;100108.91;5064476;28;20331;-71
2021/07/04 04:10:49;;;;;;;10.83;8.20;;;;;;;16.12;82.97;100142.66;5064427;28;20741;-73
2021/07/04 04:13:15;;;;;;;9.00;8.20;;;;;;;16.23;81.91;100182.50;5063807;28;20259;-73
2021/07/04 04:15:43;;;;;;;8.37;7.67;;;;;;;16.25;80.88;100225.41;5064439;28;20410;-73
2021/07/04 04:18:10;;;;;;;14.33;8.10;;;;;;;16.24;80.96;100237.75;5064503;28;20271;-72
2021/07/04 04:20:37;;;;;;;10.63;7.87;;;;;;;16.27;81.40;100213.03;5064517;28;20258;-73
2021/07/04 04:23:04;;;;;;;8.03;7.03;;;;;;;16.35;82.30;100176.69;5063641;28;20205;-73
2021/07/04 04:25:30;;;;;;;8.27;7.30;;;;;;;16.42;81.67;100195.66;5064106;28;20805;-73
2021/07/04 04:27:56;;;;;;;8.37;7.20;;;;;;;16.50;81.18;100208.50;5064388;28;20386;-73
2021/07/04 04:30:23;;;;;;;13.37;7.40;;;;;;;16.44;81.47;100218.38;5064001;28;20205;-73
2021/07/04 04:32:52;;;;;;;8.77;8.00;;;;;;;16.37;82.21;100193.25;5063498;28;20208;-73
2021/07/04 04:35:18;;;;;;;8.13;7.37;;;;;;;16.44;82.45;100172.75;5063128;28;20724;-73
2021/07/04 04:37:44;;;;;;;8.10;7.50;;;;;;;16.47;82.14;100175.22;5063614;28;20661;-73
2021/07/04 04:40:12;;;;;;;9.80;8.07;;;;;;;16.57;82.02;100191.44;5063778;28;20247;-73
2021/07/04 04:42:38;;;;;;;8.60;7.80;;;;;;;16.59;81.57;100200.13;5063543;28;20449;-73
2021/07/04 04:45:06;;;;;;;8.80;7.97;;;;;;;16.65;82.20;100189.31;5063934;28;20202;-73
2021/07/04 04:47:33;;;;;;;16.40;8.37;;;;;;;16.65;82.99;100148.00;5063387;28;20764;-73
2021/07/04 04:50:00;;;;;;;8.93;8.23;;;;;;;16.71;82.53;100174.97;5063686;28;20209;-73
2021/07/04 04:52:27;;;;;;;9.13;8.00;;;;;;;16.65;83.04;100152.41;5063308;28;20213;-73
2021/07/04 04:54:53;;;;;;;8.70;8.10;;;;;;;16.70;83.09;100146.91;5063475;28;20230;-73
2021/07/04 04:57:19;;;;;;;8.53;7.93;;;;;;;16.69;83.36;100132.88;5063067;28;20221;-73
2021/07/04 04:59:46;;;;;;;8.70;8.10;;;;;;;16.72;83.18;100137.16;5063651;28;20676;-73
2021/07/04 05:02:12;;;;;;;8.77;7.97;;;;;;;16.78;83.60;100127.13;5063321;28;20286;-73
2021/07/04 05:04:38;;;;;;;9.90;9.10;;;;;;;16.79;83.56;100131.50;5063140;28;20247;-73
2021/07/04 05:07:07;;;;;;;9.60;8.80;;;;;;;16.85;82.94;100159.38;5063632;28;20229;-74
2021/07/04 05:09:33;;;;;;;12.13;9.60;;;;;;;16.85;82.88;100154.09;5063724;28;20643;-73
2021/07/04 05:12:00;;;;;;;10.83;8.97;;;;;;;16.91;82.56;100179.28;5062813;28;20263;-73
2021/07/04 05:14:27;;;;;;;9.87;9.07;;;;;;;16.43;82.09;100221.94;5063063;28;20280;-73
2021/07/04 05:16:53;;;;;;;10.03;9.23;;;;;;;16.24;83.22;100168.41;5061944;28;20281;-75
2021/07/04 05:19:19;;;;;;;9.87;9.10;;;;;;;16.40;83.48;100153.59;5062310;28;20722;-74
2021/07/04 05:21:46;;;;;;;9.03;8.50;;;;;;;16.57;84.20;100112.38;5062557;28;20631;-74
2021/07/04 05:24:14;;;;;;;9.50;8.60;;;;;;;16.67;84.04;100124.22;5062523;28;20194;-73
2021/07/04 05:26:41;;;;;;;9.67;8.90;;;;;;;16.52;83.68;100151.31;5062131;28;20275;-73
2021/07/04 05:29:08;;;;;;;9.30;8.47;;;;;;;16.57;83.63;100146.66;5062289;28;20201;-74
2021/07/04 05:31:34;;;;;;;9.50;8.70;;;;;;;16.67;83.64;100148.78;5062349;28;20617;-73
2021/07/04 05:34:01;;;;;;;9.47;8.53;;;;;;;16.78;84.07;100119.25;5061978;28;20227;-74
2021/07/04 05:36:27;;;;;;;9.57;8.77;;;;;;;16.65;83.48;100157.69;5062331;28;20772;-75
2021/07/04 05:38:53;;;;;;;9.73;8.80;;;;;;;16.43;84.20;100129.75;5062496;28;20220;-73
2021/07/04 05:41:21;;;;;;;10.47;9.67;;;;;;;16.14;85.31;100096.88;5062509;28;20208;-74
2021/07/04 05:43:49;;;;;;;10.50;9.70;;;;;;;15.95;86.86;100033.72;5061651;28;20240;-74
2021/07/04 05:46:16;;;;;;;10.43;9.73;;;;;;;16.02;87.16;100011.44;5061472;28;20583;-75
2021/07/04 05:48:44;;;;;;;11.53;10.67;;;;;;;16.25;86.73;100028.75;5062184;28;20254;-74
2021/07/04 05:51:11;;;;;;;10.53;9.77;;;;;;;16.40;86.33;100047.38;5062490;28;20258;-74
2021/07/04 05:53:38;;;;;;;9.63;9.03;;;;;;;16.51;86.26;100045.06;5061968;28;20231;-74
2021/07/04 05:56:05;;;;;;;10.10;9.47;;;;;;;16.65;86.15;100055.75;5061902;28;20255;-74
2021/07/04 05:58:32;;;;;;;9.33;8.70;;;;;;;16.80;85.99;100058.53;5061914;28;20204;-74
2021/07/04 06:00:59;;;;;;;8.60;8.00;;;;;;;16.88;85.53;100080.13;5061275;28;20251;-74
2021/07/04 06:03:25;;;;;;;9.30;8.53;;;;;;;16.94;85.33;100092.97;5061820;28;20205;-74
2021/07/04 06:05:51;;;;;;;9.00;8.50;;;;;;;17.02;85.21;100095.22;5062180;28;20202;-74
2021/07/04 06:08:18;;;;;;;8.30;7.70;;;;;;;17.04;84.58;100128.50;5062466;28;20282;-74
2021/07/04 06:10:45;;;;;;;8.43;7.73;;;;;;;17.06;84.65;100125.78;5061673;28;20252;-72
2021/07/04 06:13:12;;;;;;;9.83;8.87;;;;;;;17.16;85.45;100095.38;5061427;28;20250;-74
2021/07/04 06:15:40;;;;;;;8.60;7.63;;;;;;;17.26;84.90;100112.44;5058124;28;20878;-74
2021/07/04 06:18:06;;;;;;;8.60;8.00;;;;;;;17.37;84.82;100103.13;5061042;28;20228;-74
2021/07/04 06:20:33;;;;;;;8.57;8.00;;;;;;;17.44;84.47;100136.13;5061190;28;20214;-74
2021/07/04 06:22:59;;;;;;;9.03;8.43;;;;;;;17.49;83.96;100157.88;5061713;28;20857;-74
2021/07/04 06:25:26;;;;;;;9.17;8.27;;;;;;;17.51;83.61;100179.75;5062467;28;20723;-73
2021/07/04 06:27:52;;;;;;;8.60;8.00;;;;;;;17.55;83.86;100165.47;5061923;28;20238;-73
2021/07/04 06:30:20;;;;;;;8.70;8.03;;;;;;;17.63;83.96;100157.16;5061968;28;20270;-73
2021/07/04 06:32:48;;;;;;;9.00;8.30;;;;;;;17.72;83.87;100158.44;5062189;28;20205;-73
2021/07/04 06:35:16;;;;;;;6.97;6.43;;;;;;;17.78;83.76;100163.41;5061961;28;20223;-72
2021/07/04 06:37:43;;;;;;;7.50;6.90;;;;;;;17.87;83.45;100173.50;5061480;28;20233;-73
2021/07/04 06:40:11;;;;;;;7.93;7.43;;;;;;;17.92;82.90;100207.56;5061770;28;20222;-73
2021/07/04 06:42:37;;;;;;;11.63;7.63;;;;;;;18.01;82.88;100204.47;5061656;28;20202;-73
2021/07/04 06:45:05;;;;;;;8.97;8.17;;;;;;;18.18;83.10;100191.19;5062398;28;20206;-73
2021/07/04 06:47:31;;;;;;;8.17;7.57;;;;;;;18.29;82.51;100209.09;5062045;28;20230;-73
2021/07/04 06:50:00;;;;;;;9.10;8.40;;;;;;;18.41;81.94;100236.63;5061738;28;20216;-73
2021/07/04 06:52:26;;;;;;;8.80;8.03;;;;;;;18.56;81.11;100288.66;5061579;28;20674;-73
2021/07/04 06:54:52;;;;;;;9.13;8.53;;;;;;;18.71;80.99;100273.78;5061785;28;20246;-73
2021/07/04 06:57:28;;;;;;;9.53;8.93;;;;;;;18.85;81.32;100268.59;5061764;28;20486;-73
2021/07/04 06:59:57;;;;;;;9.40;8.80;;;;;;;19.00;81.06;100268.66;5064129;28;20524;-73
2021/07/04 07:02:24;;;;;;;9.10;8.50;;;;;;;19.15;80.80;100270.44;5065592;28;20219;-75
2021/07/04 07:04:50;;;;;;;8.10;7.67;;;;;;;19.31;80.24;100290.72;5065745;28;20206;-73
2021/07/04 07:07:18;;;;;;;9.00;8.37;;;;;;;19.41;79.87;100334.25;5065169;28;20226;-73
2021/07/04 07:09:44;;;;;;;8.57;7.97;;;;;;;19.53;79.46;100322.09;5066210;28;20605;-73
2021/07/04 07:12:11;;;;;;;9.30;8.50;;;;;;;19.64;79.49;100331.13;5065456;28;20259;-74
2021/07/04 07:14:37;;;;;;;8.97;8.43;;;;;;;19.73;79.25;100336.84;5065520;28;20224;-73
2021/07/04 07:17:04;;;;;;;8.80;8.20;;;;;;;19.86;78.92;100340.50;5065717;28;20235;-73
2021/07/04 07:19:31;;;;;;;9.30;8.60;;;;;;;19.96;78.52;100360.19;5066002;28;20618;-73
2021/07/04 07:21:57;;;;;;;8.57;7.97;;;;;;;20.07;79.07;100326.91;5065947;28;20261;-73
2021/07/04 07:24:25;;;;;;;8.37;7.87;;;;;;;20.18;78.07;100364.22;5065296;28;20208;-73
2021/07/04 07:26:52;;;;;;;8.73;8.20;;;;;;;20.26;76.72;100422.03;5066008;28;20228;-73
2021/07/04 07:29:18;;;;;;;9.07;8.53;;;;;;;20.28;76.46;100436.94;5065463;28;20235;-73
2021/07/04 07:31:45;;;;;;;9.27;8.67;;;;;;;20.30;77.80;100373.22;5065117;28;20594;-73
2021/07/04 07:34:11;;;;;;;9.03;8.40;;;;;;;20.40;76.91;100391.13;5065000;28;20226;-73
2021/07/04 07:36:38;;;;;;;9.57;9.00;;;;;;;20.50;75.39;100467.47;5064962;28;20277;-73
2021/07/04 07:39:05;;;;;;;9.30;8.70;;;;;;;20.57;75.24;100474.09;5064483;28;20211;-73
2021/07/04 07:41:33;;;;;;;9.50;8.80;;;;;;;20.70;75.43;100445.06;5065620;28;20208;-74
2021/07/04 07:43:59;;;;;;;9.70;9.00;;;;;;;20.81;74.04;100485.91;5065138;28;20204;-73
2021/07/04 07:46:26;;;;;;;8.93;8.33;;;;;;;20.85;72.52;100582.09;5065270;28;20285;-72
2021/07/04 07:48:52;;;;;;;9.67;8.77;;;;;;;20.85;71.03;100642.25;5064607;28;20589;-72
2021/07/04 07:51:19;;;;;;;10.00;9.30;;;;;;;20.76;71.95;100586.16;5065103;28;20617;-72
2021/07/04 07:53:46;;;;;;;10.57;9.77;;;;;;;20.70;71.71;100604.22;5064656;28;20207;-72
2021/07/04 07:56:13;;;;;;;10.20;9.50;;;;;;;20.63;71.50;100611.69;5064849;28;20223;-72
2021/07/04 07:58:43;;;;;;;9.63;8.93;;;;;;;20.65;71.43;100604.47;5065274;28;20204;-72
2021/07/04 08:01:09;;;;;;;9.27;8.67;;;;;;;20.67;72.42;100570.75;5064716;28;20294;-72
2021/07/04 08:03:36;;;;;;;8.83;8.27;;;;;;;20.76;72.78;100532.25;5063926;28;20215;-72
2021/07/04 08:06:02;;;;;;;9.80;9.10;;;;;;;20.79;71.12;100611.63;5064277;28;20204;-72
2021/07/04 08:08:29;;;;;;;9.57;8.93;;;;;;;20.84;72.44;100559.16;5064838;28;20254;-73
2021/07/04 08:10:55;;;;;;;9.07;8.47;;;;;;;20.93;73.01;100526.78;5064623;28;20242;-72
2021/07/04 08:13:21;;;;;;;8.97;8.40;;;;;;;21.08;73.48;100482.50;5064228;28;20733;-72
2021/07/04 08:15:49;;;;;;;9.03;8.47;;;;;;;21.20;72.36;100549.91;5064718;28;20660;-72
2021/07/04 08:18:16;;;;;;;10.23;9.43;;;;;;;21.28;72.59;100529.03;5064712;28;20281;-72
2021/07/04 08:20:42;;;;;;;9.60;8.80;;;;;;;21.44;73.68;100494.44;5064188;28;20261;-73
2021/07/04 08:23:09;;;;;;;13.13;10.03;;;;;;;21.55;75.01;100409.63;5064522;28;20203;-72
2021/07/04 08:25:36;;;;;;;10.17;9.37;;;;;;;21.65;74.84;100409.03;5064801;28;20253;-72
2021/07/04 08:28:03;;;;;;;8.93;8.27;;;;;;;21.72;72.53;100511.28;5063948;28;20228;-72
2021/07/04 08:30:29;;;;;;;8.60;8.10;;;;;;;21.76;72.87;100518.97;5063138;28;20208;-72
2021/07/04 08:32:58;;;;;;;9.87;9.13;;;;;;;21.85;71.39;100536.09;5063667;28;20211;-72
2021/07/04 08:35:25;;;;;;;8.97;8.37;;;;;;;21.81;70.59;100615.16;5064521;28;20228;-72
2021/07/04 08:37:51;;;;;;;8.73;8.23;;;;;;;21.89;68.67;100678.47;5063686;28;20274;-72
2021/07/04 08:40:18;;;;;;;9.60;8.80;;;;;;;21.94;70.00;100635.66;5061797;28;20683;-72
2021/07/04 08:42:44;;;;;;;9.93;9.27;;;;;;;22.00;67.91;100701.72;5061747;28;20277;-72
2021/07/04 08:45:12;;;;;;;9.10;8.40;;;;;;;22.03;68.63;100685.59;5062062;28;20206;-72
2021/07/04 08:47:38;;;;;;;9.83;9.20;;;;;;;21.96;66.90;100748.94;5061541;28;20284;-72
2021/07/04 08:50:08;;;;;;;10.70;10.00;;;;;;;22.03;68.14;100688.25;5062590;28;20262;-71
2021/07/04 08:52:36;;;;;;;9.70;9.10;;;;;;;22.19;67.40;100704.09;5061823;28;20269;-72
2021/07/04 08:55:04;;;;;;;9.17;8.57;;;;;;;22.26;67.49;100691.28;5063087;28;20654;-73
2021/07/04 08:57:30;;;;;;;9.67;8.60;;;;;;;22.18;67.49;100697.06;5063406;28;20219;-73
2021/07/04 08:59:56;;;;;;;8.87;8.27;;;;;;;22.28;69.38;100626.41;5063457;28;20208;-73
2021/07/04 09:02:31;;;;;;;8.90;8.30;;;;;;;22.44;70.09;100559.75;5062284;28;20703;-73
2021/07/04 09:05:00;;;;;;;10.23;9.53;;;;;;;22.59;67.17;100688.25;5063081;28;20254;-73
2021/07/04 09:07:28;;;;;;;8.93;8.33;;;;;;;22.77;67.00;100694.16;5063238;28;20254;-73
2021/07/04 09:09:59;;;;;;;10.13;9.53;;;;;;;22.89;66.86;100698.66;5062833;28;20682;-73
2021/07/04 09:12:37;;;;;;;9.23;8.70;;;;;;;22.91;67.48;100678.16;5062974;28;20294;-73
2021/07/04 09:15:13;;;;;;;8.77;8.20;;;;;;;22.98;67.61;100658.13;5063193;28;20589;-73
2021/07/04 09:17:44;;;;;;;9.03;8.40;;;;;;;23.09;68.57;100629.94;5063144;28;20737;-73
2021/07/04 09:20:12;;;;;;;8.93;8.40;;;;;;;23.22;64.38;100769.31;5063372;28;20209;-73
2021/07/04 09:22:42;;;;;;;8.70;8.10;;;;;;;23.27;62.92;100851.56;5062143;28;20236;-74
2021/07/04 09:25:12;;;;;;;9.17;8.40;;;;;;;23.22;64.13;100811.94;5062862;28;20679;-73
2021/07/04 09:27:39;;;;;;;8.80;8.20;;;;;;;23.23;64.82;100764.84;5062927;28;20235;-73
2021/07/04 09:30:10;;;;;;;9.57;8.93;;;;;;;23.19;65.92;100722.44;5062621;28;20722;-72
2021/07/04 09:32:36;;;;;;;8.40;7.80;;;;;;;23.20;67.86;100619.41;5062259;28;20251;-73
2021/07/04 09:35:05;;;;;;;9.30;8.70;;;;;;;23.19;68.00;100594.59;5062664;28;20208;-72
2021/07/04 09:37:35;;;;;;;9.77;9.13;;;;;;;23.27;69.67;100529.28;5062217;28;20286;-72
2021/07/04 09:40:20;;;;;;;9.03;8.53;;;;;;;23.42;66.75;100642.75;5062482;28;20665;-73
2021/07/04 09:42:54;;;;;;;8.23;7.67;;;;;;;23.48;68.01;100594.34;5062005;28;20209;-73
2021/07/04 09:45:22;;;;;;;8.47;7.87;;;;;;;23.63;64.07;100725.69;5062580;28;20205;-72
2021/07/04 09:47:51;;;;;;;8.47;7.97;;;;;;;23.65;61.26;100888.19;5062185;28;20300;-72
2021/07/04 09:50:18;;;;;;;9.00;8.47;;;;;;;23.71;62.32;100834.47;5062548;28;20311;-73
2021/07/04 09:52:55;;;;;;;9.10;8.50;;;;;;;23.71;61.90;100851.28;5062049;28;20752;-73
2021/07/04 09:55:23;;;;;;;7.47;6.97;;;;;;;23.73;62.15;100814.72;5062575;28;20233;-72
2021/07/04 09:57:55;;;;;;;8.70;7.90;;;;;;;23.87;60.51;100895.63;5061937;28;20728;-73
2021/07/04 10:00:24;;;;;;;7.70;7.20;;;;;;;23.92;60.00;100922.81;5062474;28;20754;-72
2021/07/04 10:03:12;;;;;;;7.70;7.20;;;;;;;24.03;59.36;100930.09;5061017;28;20261;-72
2021/07/04 10:05:40;;;;;;;8.43;7.70;;;;;;;24.03;60.97;100850.09;5062111;28;20228;-71
2021/07/04 10:08:21;;;;;;;8.30;7.80;;;;;;;24.06;64.11;100754.69;5061968;28;20227;-72
2021/07/04 10:10:49;;;;;;;8.60;8.03;;;;;;;24.06;62.15;100781.38;4361078;28;10000851;-72
2021/07/04 10:13:16;;;;;;;8.10;7.43;;;;;;;24.09;63.13;100741.16;5059066;28;20212;-72
2021/07/04 10:15:43;;;;;;;7.77;7.17;;;;;;;24.13;60.32;100833.34;5059318;28;20253;-72
2021/07/04 10:18:10;;;;;;;6.97;6.40;;;;;;;24.14;59.84;100891.06;5059453;28;20228;-71
2021/07/04 10:20:37;;;;;;;7.33;6.83;;;;;;;24.27;61.43;100824.38;5059791;28;20209;-72
2021/07/04 10:23:06;;;;;;;7.33;6.93;;;;;;;24.33;60.18;100834.59;5059032;28;20207;-71
2021/07/04 10:25:32;;;;;;;7.30;6.60;;;;;;;24.36;61.29;100790.81;5059017;28;20723;-72
2021/07/04 10:28:01;;;;;;;7.10;6.70;;;;;;;24.40;59.80;100851.06;5059143;28;20234;-72
2021/07/04 10:30:28;;;;;;;6.77;6.40;;;;;;;24.31;60.12;100839.19;5059084;28;20679;-72
2021/07/04 10:33:14;;;;;;;6.50;6.17;;;;;;;24.37;57.05;100956.16;5058903;28;20553;-72
2021/07/04 10:36:06;;;;;;;6.63;6.20;;;;;;;24.39;58.47;100862.66;5062736;28;20232;-72
2021/07/04 10:38:51;;;;;;;6.80;6.20;;;;;;;24.38;57.97;100888.50;5063434;28;20302;-72
2021/07/04 10:41:20;;;;;;;7.00;6.50;;;;;;;24.34;58.44;100864.78;5063143;28;20227;-72
2021/07/04 10:44:04;;;;;;;6.70;6.10;;;;;;;24.35;59.00;100867.38;5062456;28;20212;-72
2021/07/04 10:47:07;;;;;;;6.80;6.30;;;;;;;24.41;59.44;100809.19;5063337;28;20831;-72
2021/07/04 10:49:51;;;;;;;7.10;6.60;;;;;;;24.48;62.25;100704.56;5062325;28;20215;-72
2021/07/04 10:52:20;;;;;;;6.77;6.33;;;;;;;24.58;59.28;100792.88;5060598;28;20595;-72
2021/07/04 10:54:53;;;;;;;6.67;6.27;;;;;;;24.59;58.21;100855.97;5062767;28;20207;-72
2021/07/04 10:57:23;;;;;;;6.83;6.47;;;;;;;24.67;55.75;100947.03;5062100;28;20263;-71
2021/07/04 11:00:12;;;;;;;6.53;6.00;;;;;;;24.71;54.51;101001.06;5061993;28;20219;-71
2021/07/04 11:02:41;;;;;;;6.40;6.10;;;;;;;24.71;55.88;100911.13;5061974;28;20215;-72
2021/07/04 11:05:08;;;;;;;6.70;6.30;;;;;;;24.80;55.03;100943.47;5062581;28;20211;-72
2021/07/04 11:08:10;;;;;;;6.63;6.23;;;;;;;24.87;57.46;100886.88;5062647;28;20232;-73
2021/07/04 11:10:38;;;;;;;6.30;5.90;;;;;;;24.93;55.56;100864.19;5062160;28;21307;-72
2021/07/04 11:13:27;;;;;;;6.37;5.80;;;;;;;25.04;57.36;100836.72;5062273;28;20212;-72
2021/07/04 11:16:22;;;;;;;6.80;6.30;;;;;;;25.17;53.60;100990.69;5062420;28;20634;-72
2021/07/04 11:18:52;;;;;;;6.53;6.23;;;;;;;25.22;55.21;100954.78;5060690;28;20269;-71
2021/07/04 11:21:21;;;;;;;6.70;6.30;;;;;;;25.23;55.37;100906.56;5062277;28;20550;-72
2021/07/04 11:24:07;;;;;;;6.83;6.43;;;;;;;25.39;57.68;100819.91;5062041;28;20212;-72
2021/07/04 11:26:34;;;;;;;6.73;6.33;;;;;;;25.55;57.74;100775.88;5062138;28;20275;-72
2021/07/04 11:29:11;;;;;;;6.90;6.40;;;;;;;25.77;56.25;100883.88;5063273;28;20201;-72